createdAt,value
2023-02-09T00:01:31.910Z,101962.91
2023-02-09T00:04:00.968Z,101961.00
2023-02-09T00:06:33.322Z,101964.06
2023-02-09T00:09:01.051Z,101961.47
2023-02-09T00:11:49.957Z,101968.56
2023-02-09T00:14:22.169Z,101962.75
2023-02-09T00:16:51.256Z,101971.72
2023-02-09T00:19:20.658Z,101969.00
2023-02-09T00:21:49.144Z,101974.97
2023-02-09T00:24:17.049Z,101974.47
2023-02-09T00:26:44.702Z,101967.88
2023-02-09T00:29:12.862Z,101974.47
2023-02-09T00:31:40.654Z,101967.41
2023-02-09T00:34:08.554Z,101966.75
2023-02-09T00:36:36.247Z,101971.13
2023-02-09T00:39:03.852Z,101960.34
2023-02-09T00:41:50.151Z,101961.91
2023-02-09T00:44:20.659Z,101962.72
2023-02-09T00:46:49.305Z,101966.06
2023-02-09T00:49:16.990Z,101957.38
2023-02-09T00:51:44.735Z,101956.19
2023-02-09T00:54:13.517Z,101958.16
2023-02-09T00:56:41.055Z,101958.91
2023-02-09T00:59:08.568Z,101957.28
2023-02-09T01:01:36.615Z,101956.47
2023-02-09T01:04:04.944Z,101961.91
2023-02-09T01:06:32.923Z,101960.72
2023-02-09T01:09:01.331Z,101954.31
2023-02-09T01:11:29.931Z,101957.66
2023-02-09T01:14:00.444Z,101959.56
2023-02-09T01:16:31.757Z,101962.38
2023-02-09T01:19:01.872Z,101955.16
2023-02-09T01:21:30.647Z,101961.47
2023-02-09T01:24:01.259Z,101958.34
2023-02-09T01:26:28.909Z,101956.72
2023-02-09T01:28:56.452Z,101955.69
2023-02-09T01:31:33.922Z,101955.19
2023-02-09T01:34:04.877Z,101947.78
2023-02-09T01:36:34.021Z,101943.63
2023-02-09T01:39:03.981Z,101947.78
2023-02-09T01:41:32.908Z,101943.44
2023-02-09T01:44:11.045Z,101941.69
2023-02-09T01:46:40.049Z,101943.28
2023-02-09T01:49:10.540Z,101936.59
2023-02-09T01:51:46.875Z,101935.50
2023-02-09T01:54:25.673Z,101933.72
2023-02-09T01:57:10.462Z,101925.28
2023-02-09T01:59:42.009Z,101918.41
2023-02-09T02:02:10.679Z,101916.75
2023-02-09T02:04:39.612Z,101916.03
2023-02-09T02:07:33.421Z,101917.16
2023-02-09T02:10:03.058Z,101930.56
2023-02-09T02:12:32.616Z,101910.44
2023-02-09T02:15:00.245Z,101900.97
2023-02-09T02:17:55.454Z,101907.97
2023-02-09T02:21:04.534Z,101902.94
2023-02-09T02:23:58.129Z,101902.41
2023-02-09T02:26:40.506Z,101908.03
2023-02-09T02:30:03.015Z,101898.22
2023-02-09T02:32:45.354Z,101903.91
2023-02-09T02:35:31.017Z,101898.84
2023-02-09T02:38:17.180Z,101905.25
2023-02-09T02:41:10.779Z,101909.69
2023-02-09T02:43:53.268Z,101907.59
2023-02-09T02:46:36.034Z,101902.94
2023-02-09T02:49:18.136Z,101898.38
2023-02-09T02:51:49.348Z,101904.50
2023-02-09T02:54:45.039Z,101905.78
2023-02-09T02:57:21.254Z,101901.53
2023-02-09T03:00:23.656Z,101895.78
2023-02-09T03:02:55.822Z,101896.09
2023-02-09T03:05:25.698Z,101892.59
2023-02-09T03:07:53.284Z,101890.22
2023-02-09T03:10:35.831Z,101893.09
2023-02-09T03:13:26.971Z,101896.00
2023-02-09T03:16:48.055Z,101891.25
2023-02-09T03:19:58.492Z,101891.69
2023-02-09T03:22:37.118Z,101895.22
2023-02-09T03:25:34.216Z,101881.75
2023-02-09T03:28:17.223Z,101880.25
2023-02-09T03:30:50.171Z,101880.34
2023-02-09T03:33:25.245Z,101883.81
2023-02-09T03:35:58.765Z,101871.41
2023-02-09T03:38:27.164Z,101869.88
2023-02-09T03:40:55.408Z,101872.81
2023-02-09T03:43:42.885Z,101871.16
2023-02-09T03:46:10.552Z,101875.81
2023-02-09T03:48:38.979Z,101865.22
2023-02-09T03:51:07.101Z,101869.00
2023-02-09T03:53:37.242Z,101865.13
2023-02-09T03:56:07.910Z,101874.06
2023-02-09T03:58:36.331Z,101870.81
2023-02-09T04:01:09.935Z,101875.41
2023-02-09T04:03:39.915Z,101873.75
2023-02-09T04:06:10.728Z,101866.66
2023-02-09T04:08:38.388Z,101870.53
2023-02-09T04:11:06.044Z,101860.31
2023-02-09T04:13:33.504Z,101865.22
2023-02-09T04:16:01.236Z,101862.16
2023-02-09T04:18:28.727Z,101854.25
2023-02-09T04:20:56.190Z,101860.19
2023-02-09T04:23:23.659Z,101857.53
2023-02-09T04:25:51.178Z,101852.44
2023-02-09T04:28:21.682Z,101857.09
2023-02-09T04:30:54.391Z,101855.19
2023-02-09T04:33:24.049Z,101859.50
2023-02-09T04:35:52.964Z,101861.47
2023-02-09T04:38:22.027Z,101870.91
2023-02-09T04:40:52.190Z,101856.72
2023-02-09T04:43:20.024Z,101866.31
2023-02-09T04:45:48.780Z,101862.94
2023-02-09T04:48:21.267Z,101863.16
2023-02-09T04:50:49.598Z,101861.31
2023-02-09T04:53:17.865Z,101855.06
2023-02-09T04:55:47.421Z,101852.84
2023-02-09T04:58:38.288Z,101852.19
2023-02-09T05:01:06.844Z,101866.59
2023-02-09T05:03:34.628Z,101859.38
2023-02-09T05:06:05.495Z,101863.88
2023-02-09T05:08:33.528Z,101867.53
2023-02-09T05:11:01.381Z,101868.56
2023-02-09T05:13:29.801Z,101864.88
2023-02-09T05:15:57.629Z,101868.19
2023-02-09T05:18:26.307Z,101875.88
2023-02-09T05:20:53.776Z,101874.41
2023-02-09T05:23:21.521Z,101874.81
2023-02-09T05:25:49.016Z,101879.69
2023-02-09T05:28:16.793Z,101884.88
2023-02-09T05:30:44.883Z,101880.28
2023-02-09T05:33:12.587Z,101877.41
2023-02-09T05:35:40.227Z,101876.25
2023-02-09T05:38:07.771Z,101883.72
2023-02-09T05:40:35.354Z,101885.50
2023-02-09T05:43:03.481Z,101882.28
2023-02-09T05:45:31.003Z,101891.75
2023-02-09T05:47:58.471Z,101884.31
2023-02-09T05:50:26.042Z,101891.38
2023-02-09T05:52:58.281Z,101888.94
2023-02-09T05:55:25.979Z,101893.63
2023-02-09T05:57:53.455Z,101897.16
2023-02-09T06:00:21.617Z,101903.28
2023-02-09T06:02:51.607Z,101902.78
2023-02-09T06:05:20.993Z,101905.84
2023-02-09T06:07:49.509Z,101910.09
2023-02-09T06:10:20.238Z,101906.69
2023-02-09T06:12:48.077Z,101912.53
2023-02-09T06:15:18.678Z,101906.72
2023-02-09T06:17:46.452Z,101902.47
2023-02-09T06:20:14.009Z,101912.38
2023-02-09T06:22:41.530Z,101910.03
2023-02-09T06:25:09.388Z,101902.06
2023-02-09T06:27:36.974Z,101905.78
2023-02-09T06:30:06.065Z,101904.09
2023-02-09T06:32:33.518Z,101901.00
2023-02-09T06:35:01.016Z,101898.28
2023-02-09T06:37:28.445Z,101901.69
2023-02-09T06:39:55.954Z,101899.47
2023-02-09T06:42:23.819Z,101906.88
2023-02-09T06:44:51.355Z,101907.88
2023-02-09T06:47:18.792Z,101900.13
2023-02-09T06:49:46.301Z,101900.38
2023-02-09T06:52:13.892Z,101908.94
2023-02-09T06:54:41.387Z,101908.94
2023-02-09T06:57:08.932Z,101912.50
2023-02-09T06:59:36.434Z,101915.38
2023-02-09T07:02:03.938Z,101920.69
2023-02-09T07:04:31.440Z,101917.81
2023-02-09T07:06:58.905Z,101913.47
2023-02-09T07:09:27.023Z,101913.94
2023-02-09T07:11:54.579Z,101919.84
2023-02-09T07:14:22.021Z,101915.06
2023-02-09T07:16:49.490Z,101922.59
2023-02-09T07:19:17.024Z,101919.03
2023-02-09T07:21:44.494Z,101918.19
2023-02-09T07:24:12.454Z,101917.28
2023-02-09T07:26:40.001Z,101915.66
2023-02-09T07:29:07.437Z,101915.13
2023-02-09T07:31:34.993Z,101918.06
2023-02-09T07:34:02.619Z,101925.59
2023-02-09T07:36:30.103Z,101923.44
2023-02-09T07:38:58.834Z,101920.03
2023-02-09T07:41:27.868Z,101921.06
2023-02-09T07:43:56.909Z,101909.91
2023-02-09T07:46:25.714Z,101916.59
2023-02-09T07:48:53.243Z,101922.84
2023-02-09T07:51:25.415Z,101914.81
2023-02-09T07:53:58.359Z,101909.81
2023-02-09T07:56:27.727Z,101924.13
2023-02-09T07:58:56.173Z,101910.69
2023-02-09T08:01:25.644Z,101914.72
2023-02-09T08:03:56.531Z,101911.09
2023-02-09T08:06:45.954Z,101908.63
2023-02-09T08:09:16.982Z,101908.91
2023-02-09T08:12:06.048Z,101913.63
2023-02-09T08:14:48.199Z,101912.56
2023-02-09T08:17:27.942Z,101909.53
2023-02-09T08:20:11.682Z,101908.19
2023-02-09T08:22:46.627Z,101899.00
2023-02-09T08:25:18.581Z,101901.28
2023-02-09T08:27:47.759Z,101902.38
2023-02-09T08:30:17.199Z,101894.69
2023-02-09T08:32:46.065Z,101896.25
2023-02-09T08:35:13.591Z,101896.66
2023-02-09T08:37:41.120Z,101897.75
2023-02-09T08:40:09.502Z,101899.19
2023-02-09T08:42:36.980Z,101897.78
2023-02-09T08:45:04.663Z,101889.09
2023-02-09T08:47:32.118Z,101894.22
2023-02-09T08:49:59.680Z,101892.13
2023-02-09T08:52:27.288Z,101892.25
2023-02-09T08:54:54.847Z,101888.44
2023-02-09T08:57:24.208Z,101890.69
2023-02-09T08:59:55.026Z,101890.00
2023-02-09T09:02:22.666Z,101884.38
2023-02-09T09:04:50.156Z,101887.06
2023-02-09T09:07:17.639Z,101884.97
2023-02-09T09:09:45.066Z,101877.53
2023-02-09T09:12:12.594Z,101872.00
2023-02-09T09:14:40.547Z,101869.75
2023-02-09T09:17:08.046Z,101873.91
2023-02-09T09:19:35.593Z,101878.75
2023-02-09T09:22:03.730Z,101868.41
2023-02-09T09:24:32.169Z,101868.63
2023-02-09T09:26:59.649Z,101869.25
2023-02-09T09:29:29.008Z,101874.47
2023-02-09T09:31:56.969Z,101871.47
2023-02-09T09:34:24.445Z,101867.88
2023-02-09T09:36:52.094Z,101864.09
2023-02-09T09:39:20.052Z,101868.50
2023-02-09T09:41:52.376Z,101865.22
2023-02-09T09:44:33.784Z,101859.44
2023-02-09T09:47:08.917Z,101855.53
2023-02-09T09:49:38.449Z,101853.34
2023-02-09T09:52:24.810Z,101853.53
2023-02-09T09:54:52.878Z,101850.22
2023-02-09T09:57:25.638Z,101851.00
2023-02-09T09:59:54.147Z,101843.00
2023-02-09T10:02:32.594Z,101837.50
2023-02-09T10:05:20.512Z,101839.84
2023-02-09T10:08:05.631Z,101843.22
2023-02-09T10:10:56.336Z,101830.41
2023-02-09T10:13:37.574Z,101822.84
2023-02-09T10:16:29.165Z,101815.94
2023-02-09T10:19:03.505Z,101812.06
2023-02-09T10:21:36.226Z,101812.44
2023-02-09T10:24:09.300Z,101811.22
2023-02-09T10:26:40.293Z,101805.28
2023-02-09T10:29:13.862Z,101802.22
2023-02-09T10:31:47.920Z,101799.66
2023-02-09T10:34:24.412Z,101793.53
2023-02-09T10:37:19.825Z,101788.78
2023-02-09T10:40:01.627Z,101784.56
2023-02-09T10:42:37.690Z,101778.94
2023-02-09T10:45:21.002Z,101789.25
2023-02-09T10:48:02.512Z,101778.63
2023-02-09T10:50:32.320Z,101773.00
2023-02-09T10:53:03.568Z,101765.59
2023-02-09T10:55:41.654Z,101770.78
2023-02-09T10:58:24.954Z,101764.91
2023-02-09T11:01:24.787Z,101765.06
2023-02-09T11:04:06.693Z,101760.53
2023-02-09T11:06:56.641Z,101768.50
2023-02-09T11:09:42.848Z,101757.47
2023-02-09T11:12:13.114Z,101754.97
2023-02-09T11:14:44.580Z,101761.13
2023-02-09T11:17:31.625Z,101747.28
2023-02-09T11:20:26.719Z,101757.16
2023-02-09T11:23:24.983Z,101755.03
2023-02-09T11:26:28.361Z,101758.78
2023-02-09T11:29:14.249Z,101745.94
2023-02-09T11:32:12.793Z,101751.16
2023-02-09T11:35:05.046Z,101744.53
2023-02-09T11:38:01.716Z,101739.06
2023-02-09T11:40:54.057Z,101736.66
2023-02-09T11:43:38.071Z,101734.66
2023-02-09T11:46:18.993Z,101729.75
2023-02-09T11:48:57.599Z,101731.94
2023-02-09T11:51:26.953Z,101732.59
2023-02-09T11:54:22.561Z,101720.16
2023-02-09T11:57:03.271Z,101712.66
2023-02-09T11:59:38.763Z,101720.09
2023-02-09T12:02:38.741Z,101720.44
2023-02-09T12:05:11.347Z,101714.53
2023-02-09T12:07:51.965Z,101710.81
2023-02-09T12:10:43.391Z,101708.81
2023-02-09T12:13:28.810Z,101703.47
2023-02-09T12:16:08.834Z,101708.59
2023-02-09T12:18:37.547Z,101710.16
2023-02-09T12:21:07.101Z,101709.38
2023-02-09T12:23:35.244Z,101705.00
2023-02-09T12:26:15.538Z,101696.28
2023-02-09T12:28:54.566Z,101700.25
2023-02-09T12:31:26.444Z,101696.22
2023-02-09T12:33:59.804Z,101702.94
2023-02-09T12:36:37.715Z,101698.75
2023-02-09T12:39:26.678Z,101690.50
2023-02-09T12:41:56.585Z,101689.41
2023-02-09T12:44:26.805Z,101689.63
2023-02-09T12:46:57.952Z,101682.78
2023-02-09T12:49:28.217Z,101694.56
2023-02-09T12:52:15.157Z,101693.66
2023-02-09T12:54:56.688Z,101691.56
2023-02-09T12:57:25.467Z,101691.97
2023-02-09T12:59:52.846Z,101694.72
2023-02-09T13:02:24.171Z,101691.13
2023-02-09T13:04:59.908Z,101691.25
2023-02-09T13:08:02.253Z,101693.41
2023-02-09T13:10:41.587Z,101700.34
2023-02-09T13:13:13.474Z,101686.19
2023-02-09T13:16:04.765Z,101689.06
2023-02-09T13:19:02.910Z,101689.56
2023-02-09T13:21:52.399Z,101685.13
2023-02-09T13:24:37.187Z,101682.66
2023-02-09T13:27:20.396Z,101680.88
2023-02-09T13:30:00.640Z,101681.13
2023-02-09T13:32:36.176Z,101675.34
2023-02-09T13:35:20.504Z,101673.72
2023-02-09T13:37:56.608Z,101681.00
2023-02-09T13:40:28.854Z,101670.53
2023-02-09T13:43:20.250Z,101670.84
2023-02-09T13:45:54.848Z,101682.53
2023-02-09T13:48:29.248Z,101669.41
2023-02-09T13:51:02.568Z,101664.88
2023-02-09T13:53:31.897Z,101671.47
2023-02-09T13:56:03.477Z,101666.06
2023-02-09T13:58:38.455Z,101669.78
2023-02-09T14:01:16.905Z,101662.13
2023-02-09T14:03:58.821Z,101663.25
2023-02-09T14:06:47.059Z,101663.34
2023-02-09T14:09:30.071Z,101661.31
2023-02-09T14:12:09.646Z,101671.34
2023-02-09T14:15:06.422Z,101661.72
2023-02-09T14:17:35.743Z,101664.47
2023-02-09T14:20:04.706Z,101665.16
2023-02-09T14:22:37.394Z,101659.69
2023-02-09T14:25:18.354Z,101661.75
2023-02-09T14:27:49.131Z,101656.66
2023-02-09T14:30:29.628Z,101657.59
2023-02-09T14:33:00.866Z,101651.50
2023-02-09T14:35:30.860Z,101657.06
2023-02-09T14:38:01.740Z,101660.91
2023-02-09T14:40:31.732Z,101654.25
2023-02-09T14:43:14.904Z,101657.75
2023-02-09T14:45:46.460Z,101666.47
2023-02-09T14:48:26.287Z,101662.41
2023-02-09T14:51:01.628Z,101657.69
2023-02-09T14:53:32.489Z,101658.75
2023-02-09T14:56:00.252Z,101664.03
2023-02-09T14:58:31.142Z,101667.91
2023-02-09T15:01:02.452Z,101669.00
2023-02-09T15:03:30.188Z,101667.81
2023-02-09T15:06:01.891Z,101666.66
2023-02-09T15:08:33.894Z,101675.06
2023-02-09T15:11:24.698Z,101671.47
2023-02-09T15:13:57.885Z,101674.59
2023-02-09T15:16:25.621Z,101667.19
2023-02-09T15:18:53.115Z,101675.19
2023-02-09T15:21:20.659Z,101671.81
2023-02-09T15:23:48.965Z,101668.81
2023-02-09T15:26:20.628Z,101670.16
2023-02-09T15:28:49.675Z,101668.53
2023-02-09T15:31:19.641Z,101668.25
2023-02-09T15:33:49.423Z,101659.44
2023-02-09T15:36:21.638Z,101670.34
2023-02-09T15:38:51.199Z,101665.69
2023-02-09T15:41:37.260Z,101658.56
2023-02-09T15:44:39.651Z,101659.19
2023-02-09T15:47:28.543Z,101660.19
2023-02-09T15:50:01.739Z,101660.09
2023-02-09T15:52:30.683Z,101668.50
2023-02-09T15:55:02.529Z,101660.00
2023-02-09T15:57:31.123Z,101663.31
2023-02-09T15:59:59.202Z,101667.28
2023-02-09T16:02:28.174Z,101662.78
2023-02-09T16:04:56.584Z,101662.56
2023-02-09T16:07:26.826Z,101664.28
2023-02-09T16:09:54.437Z,101667.31
2023-02-09T16:12:21.945Z,101669.16
2023-02-09T16:14:51.705Z,101671.25
2023-02-09T16:17:20.336Z,101676.63
2023-02-09T16:19:49.188Z,101685.41
2023-02-09T16:22:22.704Z,101673.91
2023-02-09T16:24:50.339Z,101680.56
2023-02-09T16:27:26.518Z,101693.09
2023-02-09T16:29:54.879Z,101693.88
2023-02-09T16:32:24.672Z,101689.59
2023-02-09T16:35:04.570Z,101696.09
2023-02-09T16:37:39.043Z,101697.59
2023-02-09T16:40:21.226Z,101710.47
2023-02-09T16:42:48.841Z,101700.34
2023-02-09T16:45:18.601Z,101700.34
2023-02-09T16:47:53.005Z,101705.81
2023-02-09T16:50:40.419Z,101708.09
2023-02-09T16:53:18.850Z,101705.97
2023-02-09T16:55:49.284Z,101704.59
2023-02-09T16:58:20.316Z,101702.19
2023-02-09T17:00:51.106Z,101704.59
2023-02-09T17:03:39.683Z,101711.19
2023-02-09T17:06:15.760Z,101715.78
2023-02-09T17:08:43.544Z,101709.41
2023-02-09T17:11:18.595Z,101712.94
2023-02-09T17:13:46.254Z,101718.13
2023-02-09T17:16:24.735Z,101718.34
2023-02-09T17:18:56.852Z,101717.91
2023-02-09T17:21:36.396Z,101725.69
2023-02-09T17:24:05.279Z,101717.69
2023-02-09T17:26:33.204Z,101716.72
2023-02-09T17:29:02.083Z,101721.81
2023-02-09T17:31:47.093Z,101722.03
2023-02-09T17:34:27.504Z,101722.97
2023-02-09T17:36:57.014Z,101726.72
2023-02-09T17:39:25.205Z,101732.69
2023-02-09T17:41:53.073Z,101733.84
2023-02-09T17:44:45.155Z,101728.84
2023-02-09T17:47:21.274Z,101735.72
2023-02-09T17:49:49.378Z,101734.63
2023-02-09T17:52:21.502Z,101730.75
2023-02-09T17:54:51.068Z,101734.78
2023-02-09T17:57:21.038Z,101735.88
2023-02-09T17:59:50.379Z,101739.03
2023-02-09T18:02:23.685Z,101742.56
2023-02-09T18:04:51.197Z,101752.03
2023-02-09T18:07:21.858Z,101750.06
2023-02-09T18:09:49.702Z,101756.00
2023-02-09T18:12:28.781Z,101752.53
2023-02-09T18:14:56.548Z,101752.13
2023-02-09T18:17:25.846Z,101746.13
2023-02-09T18:19:53.392Z,101771.63
2023-02-09T18:22:22.923Z,101763.06
2023-02-09T18:24:52.253Z,101770.25
2023-02-09T18:27:21.162Z,101763.84
2023-02-09T18:29:48.644Z,101761.16
2023-02-09T18:32:18.117Z,101760.59
2023-02-09T18:34:46.205Z,101756.59
2023-02-09T18:37:15.891Z,101766.56
2023-02-09T18:39:46.545Z,101761.94
2023-02-09T18:42:16.819Z,101762.28
2023-02-09T18:44:44.952Z,101756.44
2023-02-09T18:47:13.794Z,101755.25
2023-02-09T18:49:42.985Z,101751.72
2023-02-09T18:52:15.344Z,101752.13
2023-02-09T18:54:43.339Z,101758.28
2023-02-09T18:57:12.057Z,101760.88
2023-02-09T18:59:40.867Z,101750.47
2023-02-09T19:02:14.568Z,101754.47
2023-02-09T19:04:43.829Z,101757.03
2023-02-09T19:07:12.477Z,101756.06
2023-02-09T19:09:42.910Z,101756.66
2023-02-09T19:12:10.894Z,101752.13
2023-02-09T19:14:42.592Z,101755.38
2023-02-09T19:17:16.005Z,101753.06
2023-02-09T19:19:44.705Z,101751.38
2023-02-09T19:22:18.182Z,101757.50
2023-02-09T19:24:51.406Z,101759.91
2023-02-09T19:27:27.410Z,101755.09
2023-02-09T19:30:00.946Z,101752.69
2023-02-09T19:32:28.507Z,101755.44
2023-02-09T19:34:56.085Z,101756.88
2023-02-09T19:37:23.814Z,101752.78
2023-02-09T19:40:00.822Z,101755.19
2023-02-09T19:42:28.393Z,101753.75
2023-02-09T19:44:56.538Z,101764.25
2023-02-09T19:47:28.581Z,101759.81
2023-02-09T19:50:00.347Z,101758.22
2023-02-09T19:52:31.577Z,101754.28
2023-02-09T19:54:59.238Z,101756.75
2023-02-09T19:57:27.139Z,101753.50
2023-02-09T19:59:56.380Z,101756.94
2023-02-09T20:02:23.948Z,101761.31
2023-02-09T20:04:51.595Z,101761.31
2023-02-09T20:07:19.332Z,101755.84
2023-02-09T20:09:46.898Z,101765.38
2023-02-09T20:12:16.588Z,101760.38
2023-02-09T20:14:44.087Z,101765.72
2023-02-09T20:17:11.675Z,101762.78
2023-02-09T20:19:39.894Z,101753.13
2023-02-09T20:22:07.385Z,101758.50
2023-02-09T20:24:36.272Z,101753.59
2023-02-09T20:27:04.905Z,101750.41
2023-02-09T20:29:32.457Z,101746.41
2023-02-09T20:32:02.618Z,101746.19
2023-02-09T20:34:30.775Z,101749.09
2023-02-09T20:36:58.276Z,101753.22
2023-02-09T20:39:25.761Z,101742.19
2023-02-09T20:42:17.992Z,101740.78
2023-02-09T20:45:04.262Z,101743.81
2023-02-09T20:47:32.385Z,101740.94
2023-02-09T20:50:01.142Z,101737.38
2023-02-09T20:52:29.545Z,101748.16
2023-02-09T20:54:57.484Z,101749.97
2023-02-09T20:57:31.657Z,101752.56
2023-02-09T21:00:00.939Z,101753.75
2023-02-09T21:02:29.685Z,101757.44
2023-02-09T21:04:58.566Z,101752.16
2023-02-09T21:07:26.398Z,101750.41
2023-02-09T21:09:58.123Z,101746.56
2023-02-09T21:12:26.471Z,101744.16
2023-02-09T21:14:54.220Z,101745.25
2023-02-09T21:17:23.536Z,101748.41
2023-02-09T21:19:51.177Z,101749.06
2023-02-09T21:22:26.010Z,101747.47
2023-02-09T21:24:53.567Z,101747.97
2023-02-09T21:27:21.184Z,101747.53
2023-02-09T21:29:48.803Z,101748.00
2023-02-09T21:32:17.469Z,101747.03
2023-02-09T21:35:10.403Z,101751.34
2023-02-09T21:37:39.245Z,101750.84
2023-02-09T21:40:07.785Z,101752.16
2023-02-09T21:42:38.498Z,101754.59
2023-02-09T21:45:07.995Z,101758.28
2023-02-09T21:47:38.849Z,101759.28
2023-02-09T21:50:10.864Z,101758.47
2023-02-09T21:52:38.789Z,101760.19
2023-02-09T21:55:08.324Z,101759.19
2023-02-09T21:57:38.789Z,101761.44
2023-02-09T22:00:09.187Z,101761.31
2023-02-09T22:02:37.016Z,101757.78
2023-02-09T22:05:05.519Z,101760.69
2023-02-09T22:07:36.314Z,101765.50
2023-02-09T22:10:05.345Z,101770.75
2023-02-09T22:12:34.255Z,101773.47
2023-02-09T22:15:01.757Z,101769.47
2023-02-09T22:17:29.230Z,101775.25
2023-02-09T22:19:56.747Z,101777.31
2023-02-09T22:22:24.259Z,101769.78
2023-02-09T22:24:51.765Z,101769.78
2023-02-09T22:27:20.634Z,101778.31
2023-02-09T22:29:48.159Z,101774.00
2023-02-09T22:32:15.584Z,101778.81
2023-02-09T22:34:42.984Z,101776.75
2023-02-09T22:37:10.486Z,101775.31
2023-02-09T22:39:37.982Z,101771.44
2023-02-09T22:42:05.913Z,101774.19
2023-02-09T22:44:33.491Z,101766.00
2023-02-09T22:47:00.974Z,101768.28
2023-02-09T22:49:28.555Z,101769.72
2023-02-09T22:51:57.055Z,101751.91
2023-02-09T22:54:24.658Z,101765.69
2023-02-09T22:56:52.174Z,101768.44
2023-02-09T22:59:19.783Z,101765.53
2023-02-09T23:01:48.140Z,101758.00
2023-02-09T23:04:15.678Z,101759.63
2023-02-09T23:06:43.231Z,101757.22
2023-02-09T23:09:13.375Z,101760.25
2023-02-09T23:11:41.403Z,101761.69
2023-02-09T23:14:11.248Z,101753.19
2023-02-09T23:16:42.138Z,101751.13
2023-02-09T23:19:13.370Z,101747.72
2023-02-09T23:21:48.980Z,101753.00
2023-02-09T23:24:24.407Z,101752.88
2023-02-09T23:26:53.080Z,101750.47
2023-02-09T23:29:21.370Z,101747.56
2023-02-09T23:31:49.282Z,101745.81
2023-02-09T23:34:21.170Z,101755.41
2023-02-09T23:36:49.424Z,101750.28
2023-02-09T23:39:23.116Z,101755.91
2023-02-09T23:41:50.703Z,101752.41
2023-02-09T23:44:18.290Z,101758.81
2023-02-09T23:46:48.428Z,101757.84
2023-02-09T23:49:15.895Z,101754.97
2023-02-09T23:51:46.631Z,101752.84
2023-02-09T23:54:14.574Z,101755.28
2023-02-09T23:56:42.207Z,101751.88
2023-02-09T23:59:14.364Z,101750.16
